Ns Clipper — A8GW6 — position and weather

sailwx.info

Track history (hours):
 
Tides and Currents Weather Stations Pressure Air Temp Water Temp Dewpoint Dewpoint Depression Visibility Wind Speed Wind Dir Waves Ship Positions

Ns Clipper

Last reported at 2015-Jul-31 12:30 UTC. Time now 2015-Jul-31 13:25 UTC.
Position N 54°45' W 001°04'.

Length 243 m; draft 8.7 m.

Type: Tanker. MMSI: 636012661.

Date/timePositionNaut miles runAvg speedWind from/ knotsBaromVisibWave heightAir tempDewpointWater temp
2015-Jul-31 12:30N 54°45' W 001°04'0 0.2
2015-Jul-31 11:30N 54°45' W 001°04'0 0.1
2015-Jul-31 10:33N 54°45' W 001°04'0 0.0
2015-Jul-31 09:33N 54°45' W 001°04'0 0.0
2015-Jul-31 08:33N 54°45' W 001°04'0 0.0
2015-Jul-31 07:33N 54°45' W 001°04'0 0.2
2015-Jul-31 06:33N 54°45' W 001°04'0 0.0
2015-Jul-31 05:33N 54°45' W 001°04'0 0.0
2015-Jul-31 04:33N 54°45' W 001°04'0 0.0
2015-Jul-31 03:30N 54°45' W 001°04'0 0.0
2015-Jul-31 02:33N 54°45' W 001°04'0 0.0
2015-Jul-31 01:33N 54°45' W 001°04'0 0.0
2015-Jul-31 00:27N 54°45' W 001°04'0 0.1
2015-Jul-30 23:30N 54°45' W 001°04'0 0.2
2015-Jul-30 22:30N 54°45' W 001°04'0 0.0
2015-Jul-30 21:30N 54°45' W 001°04'0 0.0
2015-Jul-30 20:24N 54°45' W 001°04'0 0.0
2015-Jul-30 19:30N 54°45' W 001°04'0 0.0
2015-Jul-30 18:33N 54°45' W 001°04'0 0.1
2015-Jul-30 17:30N 54°45' W 001°04'0 0.1
2015-Jul-30 16:33N 54°45' W 001°04'0 0.0
2015-Jul-30 15:33N 54°45' W 001°04'0 0.0
2015-Jul-30 14:31N 54°45' W 001°04'0 0.0
2015-Jul-30 02:07N 54°45' W 001°04'0 0.0
2015-Jul-30 01:33N 54°45' W 001°04'0 0.0
2015-Jul-30 00:30N 54°45' W 001°04'0 0.0
2015-Jul-29 23:33N 54°45' W 001°04'0 0.0
2015-Jul-29 22:33N 54°45' W 001°04'0 0.1
2015-Jul-29 21:30N 54°45' W 001°04'0 0.0
2015-Jul-29 20:33N 54°45' W 001°04'0 0.0
2015-Jul-29 19:31N 54°45' W 001°04'0 0.0
2015-Jul-29 18:33N 54°45' W 001°04'0 0.0
2015-Jul-29 17:33N 54°45' W 001°04'0 0.1
2015-Jul-29 16:33N 54°45' W 001°04'0 0.0
2015-Jul-29 15:33N 54°45' W 001°04'1 1.2
2015-Jul-29 14:33N 54°44' W 001°05'6 0.2
2015-Jul-28 13:21N 54°38' W 001°09'6 7.3
2015-Jul-28 12:31N 54°44' W 001°04'2 2.0
2015-Jul-28 11:32N 54°45' W 001°02'1 1.3
2015-Jul-28 10:33N 54°46' W 001°00'5 4.8
2015-Jul-28 09:33N 54°48' W 000°53'3 3.5
2015-Jul-28 08:33N 54°47' W 000°47'1110.6
2015-Jul-28 07:33N 54°44' W 000°30'1313.1
2015-Jul-28 06:33N 54°39' W 000°08'1312.9
2015-Jul-28 05:33N 54°35' E 000°12'1312.7
2015-Jul-28 04:33N 54°31' E 000°33'13611.1
2015-Jul-27 16:20N 54°02' E 004°21'910.8
2015-Jul-27 15:32N 54°03' E 004°35'1010.7
2015-Jul-27 14:33N 54°05' E 004°53'1110.7
2015-Jul-27 13:32N 54°06' E 005°11'1110.9
2015-Jul-27 12:32N 54°07' E 005°30'1111.3
2015-Jul-27 11:33N 54°09' E 005°48'39 1.3
2015-Jul-26 06:20N 54°16' E 006°54'4 5.5
2015-Jul-26 05:33N 54°17' E 007°01'7 6.5
2015-Jul-26 04:33N 54°21' E 006°53'7 6.7
2015-Jul-26 03:33N 54°26' E 006°44'11 4.7
2015-Jul-26 01:16N 54°17' E 006°55'4 5.7
2015-Jul-26 00:33N 54°15' E 007°01'6 5.7
2015-Jul-25 23:33N 54°14' E 007°11'7 7.5
2015-Jul-25 22:33N 54°13' E 007°23'6 5.5
2015-Jul-25 21:33N 54°09' E 007°31'6 5.8
2015-Jul-25 20:33N 54°04' E 007°35'9 8.9
2015-Jul-25 19:33N 53°56' E 007°42'9 8.5
2015-Jul-25 18:33N 53°50' E 007°52'1010.1
2015-Jul-25 17:33N 53°43' E 008°04'1010.2
2015-Jul-25 16:33N 53°33' E 008°10'0 0.1
2015-Jul-25 15:20N 53°33' E 008°10'0 0.0
2015-Jul-25 14:32N 53°33' E 008°10'0 0.0
2015-Jul-25 13:29N 53°33' E 008°10'0 0.0
2015-Jul-25 12:32N 53°33' E 008°10'0 0.0
2015-Jul-25 11:29N 53°33' E 008°10'0 0.0
2015-Jul-25 10:29N 53°33' E 008°10'0 0.0
2015-Jul-25 09:32N 53°33' E 008°10'0 0.0
2015-Jul-25 08:32N 53°33' E 008°10'0 0.0
2015-Jul-25 07:32N 53°33' E 008°10'0 0.0
2015-Jul-25 06:32N 53°33' E 008°10'0 0.0
2015-Jul-25 05:32N 53°33' E 008°10'0 0.0
2015-Jul-25 04:26N 53°33' E 008°10'0 0.0
2015-Jul-25 03:32N 53°33' E 008°10'0 0.0
2015-Jul-25 02:32N 53°33' E 008°10'0 0.0
2015-Jul-25 01:32N 53°33' E 008°10'0 0.0
2015-Jul-25 00:32N 53°33' E 008°10'0 0.0
2015-Jul-24 23:32N 53°33' E 008°10'0 0.0
2015-Jul-24 22:32N 53°33' E 008°10'0 0.0
2015-Jul-24 21:26N 53°33' E 008°10'0 0.0
2015-Jul-24 20:20N 53°33' E 008°10'0 0.0
2015-Jul-24 19:32N 53°33' E 008°10'0 0.0
2015-Jul-24 18:26N 53°33' E 008°10'0 0.0
2015-Jul-24 17:31N 53°33' E 008°10'2 1.6
2015-Jul-24 16:33N 53°35' E 008°10'1010.4
2015-Jul-24 15:34N 53°45' E 008°03'1111.3
2015-Jul-24 14:33N 53°51' E 007°48'1010.3
2015-Jul-24 13:33N 53°59' E 007°36'6 5.9
2015-Jul-24 12:33N 54°03' E 007°29'0 0.1
2015-Jul-24 10:25N 54°03' E 007°29'0 0.0
2015-Jul-24 09:25N 54°03' E 007°29'0 0.1
2015-Jul-24 08:31N 54°03' E 007°29'0 0.0
2015-Jul-24 07:31N 54°03' E 007°29'0 0.1
2015-Jul-24 05:31N 54°03' E 007°29'0 0.0
2015-Jul-24 04:31N 54°03' E 007°29'0 0.0
2015-Jul-24 03:31N 54°03' E 007°29'0 0.0
2015-Jul-24 02:28N 54°03' E 007°29'0 0.0
2015-Jul-24 01:31N 54°03' E 007°29'0 0.0
2015-Jul-23 23:07N 54°03' E 007°29'0 0.1
2015-Jul-23 21:31N 54°03' E 007°29'0 0.1
2015-Jul-23 20:25N 54°03' E 007°29'0 0.1
2015-Jul-23 19:31N 54°03' E 007°29'0 0.1
2015-Jul-23 18:28N 54°03' E 007°29'0 0.1
2015-Jul-23 17:31N 54°03' E 007°29'0 0.1
2015-Jul-23 16:28N 54°03' E 007°29'0 0.0
2015-Jul-23 15:31N 54°03' E 007°29'0 0.0
2015-Jul-23 14:31N 54°03' E 007°29'0 0.0
2015-Jul-23 13:31N 54°03' E 007°29'0 0.0
2015-Jul-23 12:04N 54°03' E 007°29'0 0.0
2015-Jul-23 11:22N 54°03' E 007°29'0 0.1
2015-Jul-23 10:31N 54°03' E 007°29'0 0.1
2015-Jul-23 09:31N 54°03' E 007°29'0 0.1
2015-Jul-23 08:16N 54°03' E 007°29'0 0.0
2015-Jul-23 06:31N 54°03' E 007°29'0 0.0
2015-Jul-23 05:31N 54°03' E 007°29'0 0.2
2015-Jul-23 04:31N 54°03' E 007°29'0 0.0
2015-Jul-23 03:22N 54°03' E 007°29'0 0.0
2015-Jul-23 02:28N 54°03' E 007°29'0 0.0
2015-Jul-23 01:31N 54°03' E 007°29'0 0.0
2015-Jul-23 00:28N 54°03' E 007°29'0 0.0
2015-Jul-22 23:19N 54°03' E 007°29'0 0.0
2015-Jul-22 22:31N 54°03' E 007°29'0 0.2
2015-Jul-22 21:19N 54°03' E 007°29'0 0.1
2015-Jul-22 19:31N 54°03' E 007°29'0 0.1
2015-Jul-22 18:31N 54°03' E 007°29'0 0.1
2015-Jul-22 16:31N 54°03' E 007°29'0 0.1
2015-Jul-22 15:31N 54°03' E 007°29'0 0.0
2015-Jul-22 14:31N 54°03' E 007°29'0 0.0
2015-Jul-22 13:32N 54°03' E 007°29'0 0.0
2015-Jul-22 12:31N 54°03' E 007°29'0 0.0
2015-Jul-22 11:31N 54°03' E 007°29'0 0.0
2015-Jul-22 09:25N 54°03' E 007°29'0 0.2
2015-Jul-22 08:31N 54°03' E 007°29'0 0.0
2015-Jul-22 07:25N 54°03' E 007°29'0 0.0
2015-Jul-22 06:25N 54°03' E 007°29'0 0.1
2015-Jul-22 05:07N 54°03' E 007°29'0 0.1
2015-Jul-22 03:19N 54°03' E 007°29'0 0.1
2015-Jul-22 02:31N 54°03' E 007°29'0 0.0
2015-Jul-21 23:17N 54°03' E 007°29'0 0.0
2015-Jul-21 22:25N 54°03' E 007°29'0 0.3
2015-Jul-21 21:31N 54°03' E 007°29'0 0.0
2015-Jul-21 20:31N 54°03' E 007°29'0 0.0
2015-Jul-21 19:28N 54°03' E 007°29'0 0.0
2015-Jul-21 18:19N 54°03' E 007°29'0 0.1
2015-Jul-21 17:17N 54°03' E 007°29'0 0.1
2015-Jul-21 15:17N 54°03' E 007°29'0 0.0
2015-Jul-21 14:19N 54°03' E 007°29'0 0.0
2015-Jul-21 13:25N 54°03' E 007°29'  
Track history (hours):
 
Tides and Currents Weather Stations Pressure Air Temp Water Temp Dewpoint Dewpoint Depression Visibility Wind Speed Wind Dir Waves Ship Positions

Ns Clipper

Last reported at 2015-Jul-31 12:30 UTC. Time now 2015-Jul-31 13:25 UTC.
Position N 54°45' W 001°04'.

Length 243 m; draft 8.7 m.

Type: Tanker. MMSI: 636012661.

Date/timePositionNaut miles runAvg speedWind from/ knotsBaromVisibWave heightAir tempDewpointWater temp
2015-Jul-31 12:30N 54°45' W 001°04'0 0.2
2015-Jul-31 11:30N 54°45' W 001°04'0 0.1
2015-Jul-31 10:33N 54°45' W 001°04'0 0.0
2015-Jul-31 09:33N 54°45' W 001°04'0 0.0
2015-Jul-31 08:33N 54°45' W 001°04'0 0.0
2015-Jul-31 07:33N 54°45' W 001°04'0 0.2
2015-Jul-31 06:33N 54°45' W 001°04'0 0.0
2015-Jul-31 05:33N 54°45' W 001°04'0 0.0
2015-Jul-31 04:33N 54°45' W 001°04'0 0.0
2015-Jul-31 03:30N 54°45' W 001°04'0 0.0
2015-Jul-31 02:33N 54°45' W 001°04'0 0.0
2015-Jul-31 01:33N 54°45' W 001°04'0 0.0
2015-Jul-31 00:27N 54°45' W 001°04'0 0.1
2015-Jul-30 23:30N 54°45' W 001°04'0 0.2
2015-Jul-30 22:30N 54°45' W 001°04'0 0.0
2015-Jul-30 21:30N 54°45' W 001°04'0 0.0
2015-Jul-30 20:24N 54°45' W 001°04'0 0.0
2015-Jul-30 19:30N 54°45' W 001°04'0 0.0
2015-Jul-30 18:33N 54°45' W 001°04'0 0.1
2015-Jul-30 17:30N 54°45' W 001°04'0 0.1
2015-Jul-30 16:33N 54°45' W 001°04'0 0.0
2015-Jul-30 15:33N 54°45' W 001°04'0 0.0
2015-Jul-30 14:31N 54°45' W 001°04'0 0.0
2015-Jul-30 02:07N 54°45' W 001°04'0 0.0
2015-Jul-30 01:33N 54°45' W 001°04'0 0.0
2015-Jul-30 00:30N 54°45' W 001°04'0 0.0
2015-Jul-29 23:33N 54°45' W 001°04'0 0.0
2015-Jul-29 22:33N 54°45' W 001°04'0 0.1
2015-Jul-29 21:30N 54°45' W 001°04'0 0.0
2015-Jul-29 20:33N 54°45' W 001°04'0 0.0
2015-Jul-29 19:31N 54°45' W 001°04'0 0.0
2015-Jul-29 18:33N 54°45' W 001°04'0 0.0
2015-Jul-29 17:33N 54°45' W 001°04'0 0.1
2015-Jul-29 16:33N 54°45' W 001°04'0 0.0
2015-Jul-29 15:33N 54°45' W 001°04'1 1.2
2015-Jul-29 14:33N 54°44' W 001°05'6 0.2
2015-Jul-28 13:21N 54°38' W 001°09'6 7.3
2015-Jul-28 12:31N 54°44' W 001°04'2 2.0
2015-Jul-28 11:32N 54°45' W 001°02'1 1.3
2015-Jul-28 10:33N 54°46' W 001°00'5 4.8
2015-Jul-28 09:33N 54°48' W 000°53'3 3.5
2015-Jul-28 08:33N 54°47' W 000°47'1110.6
2015-Jul-28 07:33N 54°44' W 000°30'1313.1
2015-Jul-28 06:33N 54°39' W 000°08'1312.9
2015-Jul-28 05:33N 54°35' E 000°12'1312.7
2015-Jul-28 04:33N 54°31' E 000°33'13611.1
2015-Jul-27 16:20N 54°02' E 004°21'910.8
2015-Jul-27 15:32N 54°03' E 004°35'1010.7
2015-Jul-27 14:33N 54°05' E 004°53'1110.7
2015-Jul-27 13:32N 54°06' E 005°11'1110.9
2015-Jul-27 12:32N 54°07' E 005°30'1111.3
2015-Jul-27 11:33N 54°09' E 005°48'39 1.3
2015-Jul-26 06:20N 54°16' E 006°54'4 5.5
2015-Jul-26 05:33N 54°17' E 007°01'7 6.5
2015-Jul-26 04:33N 54°21' E 006°53'7 6.7
2015-Jul-26 03:33N 54°26' E 006°44'11 4.7
2015-Jul-26 01:16N 54°17' E 006°55'4 5.7
2015-Jul-26 00:33N 54°15' E 007°01'6 5.7
2015-Jul-25 23:33N 54°14' E 007°11'7 7.5
2015-Jul-25 22:33N 54°13' E 007°23'6 5.5
2015-Jul-25 21:33N 54°09' E 007°31'6 5.8
2015-Jul-25 20:33N 54°04' E 007°35'9 8.9
2015-Jul-25 19:33N 53°56' E 007°42'9 8.5
2015-Jul-25 18:33N 53°50' E 007°52'1010.1
2015-Jul-25 17:33N 53°43' E 008°04'1010.2
2015-Jul-25 16:33N 53°33' E 008°10'0 0.1
2015-Jul-25 15:20N 53°33' E 008°10'0 0.0
2015-Jul-25 14:32N 53°33' E 008°10'0 0.0
2015-Jul-25 13:29N 53°33' E 008°10'0 0.0
2015-Jul-25 12:32N 53°33' E 008°10'0 0.0
2015-Jul-25 11:29N 53°33' E 008°10'0 0.0
2015-Jul-25 10:29N 53°33' E 008°10'0 0.0
2015-Jul-25 09:32N 53°33' E 008°10'0 0.0
2015-Jul-25 08:32N 53°33' E 008°10'0 0.0
2015-Jul-25 07:32N 53°33' E 008°10'0 0.0
2015-Jul-25 06:32N 53°33' E 008°10'0 0.0
2015-Jul-25 05:32N 53°33' E 008°10'0 0.0
2015-Jul-25 04:26N 53°33' E 008°10'0 0.0
2015-Jul-25 03:32N 53°33' E 008°10'0 0.0
2015-Jul-25 02:32N 53°33' E 008°10'0 0.0
2015-Jul-25 01:32N 53°33' E 008°10'0 0.0
2015-Jul-25 00:32N 53°33' E 008°10'0 0.0
2015-Jul-24 23:32N 53°33' E 008°10'0 0.0
2015-Jul-24 22:32N 53°33' E 008°10'0 0.0
2015-Jul-24 21:26N 53°33' E 008°10'0 0.0
2015-Jul-24 20:20N 53°33' E 008°10'0 0.0
2015-Jul-24 19:32N 53°33' E 008°10'0 0.0
2015-Jul-24 18:26N 53°33' E 008°10'0 0.0
2015-Jul-24 17:31N 53°33' E 008°10'2 1.6
2015-Jul-24 16:33N 53°35' E 008°10'1010.4
2015-Jul-24 15:34N 53°45' E 008°03'1111.3
2015-Jul-24 14:33N 53°51' E 007°48'1010.3
2015-Jul-24 13:33N 53°59' E 007°36'6 5.9
2015-Jul-24 12:33N 54°03' E 007°29'0 0.1
2015-Jul-24 10:25N 54°03' E 007°29'0 0.0
2015-Jul-24 09:25N 54°03' E 007°29'0 0.1
2015-Jul-24 08:31N 54°03' E 007°29'0 0.0
2015-Jul-24 07:31N 54°03' E 007°29'0 0.1
2015-Jul-24 05:31N 54°03' E 007°29'0 0.0
2015-Jul-24 04:31N 54°03' E 007°29'0 0.0
2015-Jul-24 03:31N 54°03' E 007°29'0 0.0
2015-Jul-24 02:28N 54°03' E 007°29'0 0.0
2015-Jul-24 01:31N 54°03' E 007°29'0 0.0
2015-Jul-23 23:07N 54°03' E 007°29'0 0.1
2015-Jul-23 21:31N 54°03' E 007°29'0 0.1
2015-Jul-23 20:25N 54°03' E 007°29'0 0.1
2015-Jul-23 19:31N 54°03' E 007°29'0 0.1
2015-Jul-23 18:28N 54°03' E 007°29'0 0.1
2015-Jul-23 17:31N 54°03' E 007°29'0 0.1
2015-Jul-23 16:28N 54°03' E 007°29'0 0.0
2015-Jul-23 15:31N 54°03' E 007°29'0 0.0
2015-Jul-23 14:31N 54°03' E 007°29'0 0.0
2015-Jul-23 13:31N 54°03' E 007°29'0 0.0
2015-Jul-23 12:04N 54°03' E 007°29'0 0.0
2015-Jul-23 11:22N 54°03' E 007°29'0 0.1
2015-Jul-23 10:31N 54°03' E 007°29'0 0.1
2015-Jul-23 09:31N 54°03' E 007°29'0 0.1
2015-Jul-23 08:16N 54°03' E 007°29'0 0.0
2015-Jul-23 06:31N 54°03' E 007°29'0 0.0
2015-Jul-23 05:31N 54°03' E 007°29'0 0.2
2015-Jul-23 04:31N 54°03' E 007°29'0 0.0
2015-Jul-23 03:22N 54°03' E 007°29'0 0.0
2015-Jul-23 02:28N 54°03' E 007°29'0 0.0
2015-Jul-23 01:31N 54°03' E 007°29'0 0.0
2015-Jul-23 00:28N 54°03' E 007°29'0 0.0
2015-Jul-22 23:19N 54°03' E 007°29'0 0.0
2015-Jul-22 22:31N 54°03' E 007°29'0 0.2
2015-Jul-22 21:19N 54°03' E 007°29'0 0.1
2015-Jul-22 19:31N 54°03' E 007°29'0 0.1
2015-Jul-22 18:31N 54°03' E 007°29'0 0.1
2015-Jul-22 16:31N 54°03' E 007°29'0 0.1
2015-Jul-22 15:31N 54°03' E 007°29'0 0.0
2015-Jul-22 14:31N 54°03' E 007°29'0 0.0
2015-Jul-22 13:32N 54°03' E 007°29'0 0.0
2015-Jul-22 12:31N 54°03' E 007°29'0 0.0
2015-Jul-22 11:31N 54°03' E 007°29'0 0.0
2015-Jul-22 09:25N 54°03' E 007°29'0 0.2
2015-Jul-22 08:31N 54°03' E 007°29'0 0.0
2015-Jul-22 07:25N 54°03' E 007°29'0 0.0
2015-Jul-22 06:25N 54°03' E 007°29'0 0.1
2015-Jul-22 05:07N 54°03' E 007°29'0 0.1
2015-Jul-22 03:19N 54°03' E 007°29'0 0.1
2015-Jul-22 02:31N 54°03' E 007°29'0 0.0
2015-Jul-21 23:17N 54°03' E 007°29'0 0.0
2015-Jul-21 22:25N 54°03' E 007°29'0 0.3
2015-Jul-21 21:31N 54°03' E 007°29'0 0.0
2015-Jul-21 20:31N 54°03' E 007°29'0 0.0
2015-Jul-21 19:28N 54°03' E 007°29'0 0.0
2015-Jul-21 18:19N 54°03' E 007°29'0 0.1
2015-Jul-21 17:17N 54°03' E 007°29'0 0.1
2015-Jul-21 15:17N 54°03' E 007°29'0 0.0
2015-Jul-21 14:19N 54°03' E 007°29'0 0.0
2015-Jul-21 13:25N 54°03' E 007°29'  

Dump ship's entire track history